Elmwood, North Carolina
Current Conditions -  °F | °C
As of 8:35 AM on Thursday 23 Oct 2014 (Local Time) from KSVH Reporting Station
Clear Clear  
Wind Chill: 41°   Ceiling: Unl
Heat Index: 41°   Visibility: 10mi
Dew Point: 38°   Wind: 3mph
Humidity: 90%   Direction: 270°W
Pressure: 30.07"   Gusts: NA
Location:  35.8306°N, 80.9003°W
Report Text: KSVH 231235Z AUTO 27003KT 10SM CLR 05/04 A3007 RMK AO2 T00500035
Loading
Personal Weather Stations






























Interactive Weather Map
Tropical Storm Tracking
New forecast layout! Learn more

10-Day Weather Forecast

Advertisements
Track Severe Weather on mobile